Terminal Aerodrome Forecast
Issued by NWS

Home | Current Version | Previous Version | Text Only | Print | Product List | Glossary On
Versions: 1 2 3 4 5 6 7 8 9 10 11 12 13 14
920
FTUS45 KRIW 232127 AAA
TAFLND
TAF AMD
KLND 232127Z 2321/2418 VRB06KT P6SM VCSH SCT050 BKN080
     FM232300 30006KT 2SM -SN OVC015
     FM240300 02005KT 1/2SM SN VV006
     FM241200 01006KT 1SM -SN SCT008 OVC012=

USA.gov is the U.S. government's official web portal to all federal, state and local government web resources and services.